Portada
METAR-TAF:

METAR-TAF

Aeropuertos :

Livingstone, Zambia

latitud: 17-49-18S, longitud: 025-49-22E, altitud: 991 m

METAR: falta

Hora: 15:57 (13:57 UTC)

Pronóstico

El informe se hizo hace 21 horas y 57 minutos, a las 16:00 UTC
Pronóstico válido del 22 a las 18 UTC al 23 a las 24 UTC
Viento 3 kt con dirección variable
Evolucionando progresivamente
del 23 a las 08 UTC al 23 a las 10 UTC
Nubes dispersas a una altura de 2500 ft
Evolucionando progresivamente
del 23 a las 12 UTC al 23 a las 14 UTC
Viento 5 kt del sur-sureste
Nubes dispersas a una altura de 4000 ft
Evolucionando progresivamente
del 23 a las 16 UTC al 23 a las 18 UTC
Viento 3 kt con dirección variable
Visibilidad 10 km o más
sin nubes por debajo de 1500 m y sin presencia de cumulonimbus.

TAF: FLHN 221600Z 2218/2324 VRB03KT BECMG 2308/2310 SCT025 BECMG 2312/2314 16005KT SCT040 BECMG 2316/2318 VRB03KT CAVOK

Observaciones y pronósticos meteorológicos de más de 4000 aeropuertos (mensajes METAR y TAF).

Los puntos amarillos y rojos representan las estaciones disponibles.

Ponga el ratón en el punto deseado para ver el nombre de la estación.

Haga clic para ver las observaciones y los pronósticos meteorológicos.

Para cambiar el mapa : haga clic en los botones verdes con una cruz de color negro para hacer un zoom, en el botón verde con un guión para alejar o en las flechas verdes para mapas adyacentes.


METAR-TAF: